Terminal Aerodrome Forecast
Issued by NWS

Home | Current Version | Previous Version | Text Only | Print | Product List | Glossary On
Versions: 1 2 3 4 5 6 7 8 9 10 11 12 13 14 15 16 17
000
FTUS42 TJSJ 182337
TAFIST
TAF
TIST 182337Z 1900/1924 11010KT 6SM HZ FEW020 SCT050
     FM191400 12014G23KT 6SM HZ VCSH FEW020 SCT050
     FM192200 09008KT 6SM HZ FEW020=

USA.gov is the U.S. government's official web portal to all federal, state and local government web resources and services.